createdAt,value
2019-02-02T00:00:56.156Z,40.93
2019-02-02T00:03:27.292Z,40.40
2019-02-02T00:05:58.432Z,41.50
2019-02-02T00:08:30.618Z,41.50
2019-02-02T00:11:01.702Z,40.97
2019-02-02T00:13:32.838Z,40.00
2019-02-02T00:16:04.138Z,40.90
2019-02-02T00:18:35.265Z,40.83
2019-02-02T00:21:08.727Z,41.37
2019-02-02T00:23:39.884Z,39.47
2019-02-02T00:26:11.048Z,38.63
2019-02-02T00:28:43.401Z,39.40
2019-02-02T00:31:14.563Z,39.77
2019-02-02T00:33:45.728Z,37.27
2019-02-02T00:36:16.943Z,36.47
2019-02-02T00:38:48.218Z,35.23
2019-02-02T00:41:19.466Z,37.73
2019-02-02T00:43:50.712Z,36.50
2019-02-02T00:46:21.932Z,36.87
2019-02-02T00:48:53.041Z,36.73
2019-02-02T00:51:24.241Z,36.13
2019-02-02T00:53:55.419Z,33.37
2019-02-02T00:56:26.485Z,33.90
2019-02-02T00:58:57.678Z,33.60
2019-02-02T01:01:28.916Z,32.37
2019-02-02T01:04:00.071Z,31.70
2019-02-02T01:06:31.394Z,32.23
2019-02-02T01:09:04.080Z,31.37
2019-02-02T01:11:35.156Z,32.50
2019-02-02T01:14:06.603Z,32.03
2019-02-02T01:16:37.782Z,29.77
2019-02-02T01:19:09.102Z,30.83
2019-02-02T01:21:40.286Z,31.00
2019-02-02T01:24:11.673Z,29.43
2019-02-02T01:26:43.174Z,29.13
2019-02-02T01:29:14.393Z,28.97
2019-02-02T01:31:45.581Z,29.70
2019-02-02T01:34:16.815Z,27.80
2019-02-02T01:36:47.968Z,28.30
2019-02-02T01:39:19.052Z,27.70
2019-02-02T01:41:50.267Z,28.07
2019-02-02T01:44:21.345Z,28.30
2019-02-02T01:46:52.487Z,28.87
2019-02-02T01:49:23.535Z,28.37
2019-02-02T01:51:54.759Z,26.60
2019-02-02T01:54:26.067Z,28.03
2019-02-02T01:56:57.322Z,27.50
2019-02-02T01:59:28.437Z,28.07
2019-02-02T02:01:59.735Z,28.07
2019-02-02T02:04:30.800Z,26.57
2019-02-02T02:07:02.122Z,28.10
2019-02-02T02:09:33.299Z,25.60
2019-02-02T02:12:04.468Z,26.17
2019-02-02T02:14:35.714Z,27.23
2019-02-02T02:17:07.076Z,27.50
2019-02-02T02:19:38.147Z,24.93
2019-02-02T02:22:09.379Z,26.57
2019-02-02T02:24:40.684Z,27.13
2019-02-02T02:27:12.849Z,26.97
2019-02-02T02:29:44.019Z,26.00
2019-02-02T02:32:15.192Z,27.13
2019-02-02T02:34:46.288Z,25.43
2019-02-02T02:37:17.368Z,25.20
2019-02-02T02:39:48.405Z,24.73
2019-02-02T02:42:19.483Z,24.80
2019-02-02T02:44:50.590Z,24.47
2019-02-02T02:47:21.646Z,24.33
2019-02-02T02:49:52.927Z,25.57
2019-02-02T02:52:23.974Z,24.83
2019-02-02T02:54:55.077Z,25.23
2019-02-02T02:57:26.133Z,24.27
2019-02-02T02:59:57.199Z,24.30
2019-02-02T03:02:28.458Z,26.57
2019-02-02T03:04:59.682Z,25.43
2019-02-02T03:07:30.877Z,25.90
2019-02-02T03:10:01.956Z,22.33
2019-02-02T03:12:34.315Z,24.40
2019-02-02T03:15:06.939Z,24.37
2019-02-02T03:17:38.369Z,24.13
2019-02-02T03:20:10.371Z,24.30
2019-02-02T03:22:41.505Z,23.87
2019-02-02T03:25:14.841Z,24.47
2019-02-02T03:27:46.090Z,23.13
2019-02-02T03:30:18.543Z,22.50
2019-02-02T03:32:49.619Z,22.63
2019-02-02T03:35:22.409Z,22.40
2019-02-02T03:37:53.671Z,22.47
2019-02-02T03:40:24.843Z,21.47
2019-02-02T03:42:55.905Z,22.20
2019-02-02T03:45:27.008Z,23.33
2019-02-02T03:47:58.033Z,21.53
2019-02-02T03:50:29.119Z,22.57
2019-02-02T03:53:00.187Z,22.00
2019-02-02T03:55:31.346Z,20.27
2019-02-02T03:58:02.435Z,20.53
2019-02-02T04:00:33.507Z,22.13
2019-02-02T04:03:04.639Z,22.27
2019-02-02T04:05:35.680Z,20.67
2019-02-02T04:08:06.774Z,21.33
2019-02-02T04:10:37.796Z,19.67
2019-02-02T04:13:08.897Z,19.80
2019-02-02T04:15:39.966Z,20.83
2019-02-02T04:18:11.044Z,19.27
2019-02-02T04:20:42.121Z,19.50
2019-02-02T04:23:13.191Z,19.47
2019-02-02T04:25:44.260Z,18.70
2019-02-02T04:28:15.304Z,20.77
2019-02-02T04:30:46.386Z,20.93
2019-02-02T04:33:17.434Z,20.30
2019-02-02T04:35:48.613Z,20.77
2019-02-02T04:38:19.652Z,19.40
2019-02-02T04:40:50.729Z,19.23
2019-02-02T04:43:21.786Z,19.23
2019-02-02T04:45:52.866Z,19.33
2019-02-02T04:48:23.886Z,19.57
2019-02-02T04:50:54.966Z,18.13
2019-02-02T04:53:26.061Z,17.13
2019-02-02T04:55:57.114Z,17.53
2019-02-02T04:58:28.173Z,16.60
2019-02-02T05:00:59.216Z,18.23
2019-02-02T05:03:30.312Z,17.73
2019-02-02T05:06:01.348Z,15.97
2019-02-02T05:08:32.386Z,16.63
2019-02-02T05:11:03.498Z,16.83
2019-02-02T05:13:34.621Z,16.27
2019-02-02T05:16:05.735Z,16.90
2019-02-02T05:18:36.814Z,17.83
2019-02-02T05:21:07.947Z,26.97
2019-02-02T05:23:39.050Z,20.13
2019-02-02T05:26:10.159Z,18.80
2019-02-02T05:28:41.197Z,22.43
2019-02-02T05:31:12.280Z,20.93
2019-02-02T05:33:43.358Z,19.17
2019-02-02T05:36:14.424Z,17.40
2019-02-02T05:38:45.542Z,18.93
2019-02-02T05:41:16.640Z,18.90
2019-02-02T05:43:47.717Z,17.10
2019-02-02T05:46:18.778Z,19.50
2019-02-02T05:48:49.856Z,19.20
2019-02-02T05:51:20.894Z,19.40
2019-02-02T05:53:51.962Z,19.47
2019-02-02T05:56:23.006Z,19.30
2019-02-02T05:58:54.096Z,20.77
2019-02-02T06:01:25.423Z,38.90
2019-02-02T06:03:56.468Z,39.50
2019-02-02T06:06:27.618Z,34.33
2019-02-02T06:08:58.712Z,34.03
2019-02-02T06:11:29.796Z,32.80
2019-02-02T06:14:00.836Z,34.13
2019-02-02T06:16:31.905Z,29.80
2019-02-02T06:19:02.993Z,27.37
2019-02-02T06:21:34.108Z,26.87
2019-02-02T06:24:05.182Z,31.93
2019-02-02T06:26:36.214Z,32.87
2019-02-02T06:29:07.285Z,30.90
2019-02-02T06:31:38.323Z,32.00
2019-02-02T06:34:09.424Z,34.57
2019-02-02T06:36:40.555Z,36.33
2019-02-02T06:39:11.692Z,34.23
2019-02-02T06:41:42.850Z,32.67
2019-02-02T06:44:13.988Z,32.33
2019-02-02T06:46:45.142Z,29.17
2019-02-02T06:49:16.268Z,26.23
2019-02-02T06:51:47.312Z,24.87
2019-02-02T06:54:18.446Z,25.53
2019-02-02T06:56:50.814Z,26.40
2019-02-02T06:59:21.945Z,29.77
2019-02-02T07:01:53.007Z,31.70
2019-02-02T07:04:24.984Z,32.60
2019-02-02T07:06:56.083Z,34.77
2019-02-02T07:09:28.175Z,43.10
2019-02-02T07:11:59.200Z,51.30
2019-02-02T07:14:30.282Z,57.23
2019-02-02T07:17:01.498Z,47.17
2019-02-02T07:19:32.806Z,41.57
2019-02-02T07:22:03.942Z,35.30
2019-02-02T07:24:35.156Z,28.53
2019-02-02T07:27:17.139Z,24.03
2019-02-02T07:30:32.911Z,25.03
2019-02-02T07:33:04.674Z,25.83
2019-02-02T07:35:35.799Z,30.87
2019-02-02T07:38:08.306Z,27.40
2019-02-02T07:40:39.509Z,25.00
2019-02-02T07:43:11.152Z,23.10
2019-02-02T07:45:42.290Z,21.00
2019-02-02T07:48:13.684Z,19.77
2019-02-02T07:50:45.129Z,21.53
2019-02-02T07:53:16.273Z,20.43
2019-02-02T07:55:50.354Z,19.87
2019-02-02T07:58:23.578Z,20.43
2019-02-02T08:00:55.159Z,21.00
2019-02-02T08:03:26.285Z,20.70
2019-02-02T08:05:57.488Z,21.07
2019-02-02T08:08:30.178Z,29.53
2019-02-02T08:11:01.262Z,29.93
2019-02-02T08:13:32.392Z,24.80
2019-02-02T08:16:03.494Z,24.13
2019-02-02T08:18:34.535Z,25.13
2019-02-02T08:21:06.699Z,23.67
2019-02-02T08:23:37.691Z,19.73
2019-02-02T08:26:08.793Z,13.43
2019-02-02T08:28:39.839Z,11.97
2019-02-02T08:31:10.894Z,11.80
2019-02-02T08:33:42.068Z,11.67
2019-02-02T08:36:13.335Z,12.50
2019-02-02T08:38:44.429Z,14.03
2019-02-02T08:41:15.474Z,14.50
2019-02-02T08:43:46.518Z,15.83
2019-02-02T08:46:17.594Z,17.13
2019-02-02T08:48:48.691Z,16.63
2019-02-02T08:51:19.751Z,17.57
2019-02-02T08:53:50.859Z,13.67
2019-02-02T08:56:21.978Z,13.23
2019-02-02T08:58:53.001Z,11.63
2019-02-02T09:01:24.107Z,13.17
2019-02-02T09:03:55.389Z,13.20
2019-02-02T09:06:38.263Z,12.53
2019-02-02T09:08:59.552Z,13.03
2019-02-02T09:11:30.771Z,13.30
2019-02-02T09:14:02.028Z,14.80
2019-02-02T09:16:33.211Z,13.43
2019-02-02T09:19:04.589Z,14.00
2019-02-02T09:21:35.662Z,13.60
2019-02-02T09:24:07.009Z,15.57
2019-02-02T09:26:38.346Z,16.30
2019-02-02T09:29:10.503Z,16.43
2019-02-02T09:31:41.819Z,14.83
2019-02-02T09:34:13.164Z,14.10
2019-02-02T09:36:45.599Z,10.97
2019-02-02T09:39:16.883Z,11.47
2019-02-02T09:41:48.180Z,12.40
2019-02-02T09:44:19.390Z,10.90
2019-02-02T09:46:51.899Z,15.03
2019-02-02T09:49:26.373Z,13.27
2019-02-02T09:51:57.544Z,10.80
2019-02-02T09:54:28.865Z,10.10
2019-02-02T09:57:05.594Z,9.77
2019-02-02T09:59:42.810Z,11.30
2019-02-02T10:02:13.994Z,11.30
2019-02-02T10:04:45.442Z,12.47
2019-02-02T10:07:18.835Z,11.57
2019-02-02T10:09:51.129Z,12.60
2019-02-02T10:12:22.428Z,13.87
2019-02-02T10:15:02.370Z,12.97
2019-02-02T10:17:38.009Z,13.53
2019-02-02T10:20:11.126Z,13.80
2019-02-02T10:22:44.767Z,14.03
2019-02-02T10:25:17.939Z,14.80
2019-02-02T10:27:50.789Z,15.23
2019-02-02T10:30:42.027Z,14.53
2019-02-02T10:33:14.408Z,13.70
2019-02-02T10:35:45.626Z,12.50
2019-02-02T10:38:19.041Z,12.67
2019-02-02T10:40:50.283Z,12.67
2019-02-02T10:43:21.441Z,13.23
2019-02-02T10:45:52.563Z,13.23
2019-02-02T10:48:23.756Z,13.53
2019-02-02T10:50:55.510Z,13.10
2019-02-02T10:53:26.723Z,14.20
2019-02-02T10:55:57.808Z,14.80
2019-02-02T10:58:29.202Z,15.83
2019-02-02T11:01:00.521Z,14.93
2019-02-02T11:03:31.662Z,14.43
2019-02-02T11:06:02.864Z,12.93
2019-02-02T11:08:34.158Z,13.27
2019-02-02T11:11:05.782Z,13.33
2019-02-02T11:13:36.999Z,13.90
2019-02-02T11:16:08.595Z,12.10
2019-02-02T11:18:40.302Z,12.50
2019-02-02T11:21:11.676Z,11.53
2019-02-02T11:23:43.249Z,10.93
2019-02-02T11:26:14.732Z,11.50
2019-02-02T11:28:46.647Z,11.43
2019-02-02T11:31:17.902Z,11.90
2019-02-02T11:33:49.282Z,12.43
2019-02-02T11:36:22.413Z,11.60
2019-02-02T11:38:53.981Z,11.43
2019-02-02T11:41:25.245Z,13.00
2019-02-02T11:43:56.604Z,14.07
2019-02-02T11:46:28.692Z,16.17
2019-02-02T11:49:00.398Z,15.13
2019-02-02T11:51:31.840Z,14.67
2019-02-02T11:54:03.045Z,14.00
2019-02-02T11:56:34.509Z,14.47
2019-02-02T11:59:05.703Z,13.60
2019-02-02T12:01:37.287Z,13.63
2019-02-02T12:04:08.646Z,12.90
2019-02-02T12:06:39.913Z,13.03
2019-02-02T12:09:11.278Z,12.37
2019-02-02T12:11:42.857Z,13.17
2019-02-02T12:14:14.248Z,12.37
2019-02-02T12:16:45.596Z,13.90
2019-02-02T12:19:17.043Z,11.80
2019-02-02T12:21:48.314Z,11.17
2019-02-02T12:24:19.544Z,10.87
2019-02-02T12:26:53.297Z,10.90
2019-02-02T12:29:24.413Z,10.33
2019-02-02T12:31:56.849Z,10.43
2019-02-02T12:34:27.978Z,11.93
2019-02-02T12:36:59.127Z,13.53
2019-02-02T12:39:30.268Z,13.40
2019-02-02T12:42:01.465Z,17.50
2019-02-02T12:44:32.812Z,20.87
2019-02-02T12:47:04.155Z,23.30
2019-02-02T12:49:35.315Z,20.80
2019-02-02T12:52:06.498Z,16.43
2019-02-02T12:54:37.767Z,15.57
2019-02-02T12:57:09.013Z,15.00
2019-02-02T12:59:40.248Z,15.30
2019-02-02T13:02:11.425Z,17.57
2019-02-02T13:04:42.597Z,20.87
2019-02-02T13:07:15.303Z,19.73
2019-02-02T13:09:46.588Z,21.07
2019-02-02T13:12:17.700Z,19.20
2019-02-02T13:14:48.870Z,19.23
2019-02-02T13:17:19.970Z,21.23
2019-02-02T13:19:51.248Z,21.73
2019-02-02T13:22:22.326Z,19.57
2019-02-02T13:24:53.489Z,19.57
2019-02-02T13:27:25.839Z,18.67
2019-02-02T13:29:56.977Z,17.07
2019-02-02T13:32:32.081Z,18.67
2019-02-02T13:35:06.846Z,17.57
2019-02-02T13:37:38.581Z,15.30
2019-02-02T13:40:12.933Z,15.60
2019-02-02T13:42:59.506Z,11.50
2019-02-02T13:45:31.904Z,11.73
2019-02-02T13:48:03.283Z,11.70
2019-02-02T13:50:34.424Z,11.27
2019-02-02T13:53:07.237Z,10.90
2019-02-02T13:55:39.948Z,10.53
2019-02-02T13:58:11.069Z,10.93
2019-02-02T14:00:42.228Z,12.97
2019-02-02T14:03:13.355Z,10.37
2019-02-02T14:05:44.510Z,9.90
2019-02-02T14:08:15.592Z,8.53
2019-02-02T14:10:46.705Z,8.30
2019-02-02T14:13:17.864Z,8.33
2019-02-02T14:15:48.959Z,8.23
2019-02-02T14:18:20.096Z,7.63
2019-02-02T14:20:51.169Z,7.23
2019-02-02T14:23:22.358Z,7.00
2019-02-02T14:25:53.459Z,8.23
2019-02-02T14:28:28.622Z,7.73
2019-02-02T14:30:57.421Z,8.40
2019-02-02T14:33:28.574Z,7.87
2019-02-02T14:36:01.863Z,7.93
2019-02-02T14:38:32.680Z,7.63
2019-02-02T14:41:03.906Z,7.70
2019-02-02T14:43:41.581Z,7.53
2019-02-02T14:46:15.547Z,7.80
2019-02-02T14:48:48.452Z,8.17
2019-02-02T14:51:19.661Z,7.87
2019-02-02T14:53:50.795Z,7.37
2019-02-02T14:56:22.987Z,6.90
2019-02-02T14:58:54.121Z,7.30
2019-02-02T15:01:25.194Z,7.53
2019-02-02T15:03:56.363Z,6.87
2019-02-02T15:06:27.411Z,8.40
2019-02-02T15:08:58.656Z,7.73
2019-02-02T15:11:29.882Z,7.53
2019-02-02T15:14:00.976Z,7.50
2019-02-02T15:16:32.069Z,7.80
2019-02-02T15:19:04.923Z,8.87
2019-02-02T15:21:36.252Z,8.63
2019-02-02T15:24:07.513Z,7.90
2019-02-02T15:26:38.674Z,7.50
2019-02-02T15:29:09.800Z,8.23
2019-02-02T15:31:40.977Z,8.30
2019-02-02T15:34:12.301Z,8.93
2019-02-02T15:36:43.354Z,8.50
2019-02-02T15:39:14.481Z,8.37
2019-02-02T15:41:52.561Z,8.60
2019-02-02T15:44:18.445Z,9.10
2019-02-02T15:46:49.638Z,9.20
2019-02-02T15:49:20.690Z,8.43
2019-02-02T15:51:51.898Z,9.07
2019-02-02T15:54:24.112Z,10.53
2019-02-02T15:56:55.991Z,10.70
2019-02-02T15:59:27.193Z,10.90
2019-02-02T16:01:58.482Z,13.47
2019-02-02T16:04:29.657Z,12.97
2019-02-02T16:07:00.804Z,14.03
2019-02-02T16:09:31.911Z,13.30
2019-02-02T16:12:03.017Z,14.70
2019-02-02T16:14:34.258Z,14.80
2019-02-02T16:17:05.887Z,16.10
2019-02-02T16:19:37.053Z,15.90
2019-02-02T16:22:08.289Z,17.20
2019-02-02T16:24:39.452Z,18.00
2019-02-02T16:27:10.555Z,19.03
2019-02-02T16:29:43.043Z,16.50
2019-02-02T16:32:14.154Z,15.60
2019-02-02T16:34:45.419Z,16.50
2019-02-02T16:37:18.878Z,15.67
2019-02-02T16:39:50.011Z,17.13
2019-02-02T16:42:21.121Z,17.40
2019-02-02T16:44:52.231Z,16.90
2019-02-02T16:47:23.320Z,19.20
2019-02-02T16:49:54.401Z,22.60
2019-02-02T16:52:25.512Z,27.37
2019-02-02T16:54:56.587Z,31.47
2019-02-02T16:57:27.719Z,31.27
2019-02-02T16:59:58.810Z,32.73
2019-02-02T17:02:29.866Z,31.93
2019-02-02T17:05:01.001Z,32.43
2019-02-02T17:07:32.097Z,34.47
2019-02-02T17:10:03.141Z,34.47
2019-02-02T17:12:34.598Z,33.63
2019-02-02T17:15:06.581Z,34.43
2019-02-02T17:17:37.655Z,38.87
2019-02-02T17:20:15.044Z,37.87
2019-02-02T17:22:46.273Z,35.63
2019-02-02T17:25:18.637Z,37.30
2019-02-02T17:27:49.935Z,37.57
2019-02-02T17:30:22.696Z,37.63
2019-02-02T17:32:55.531Z,38.77
2019-02-02T17:35:26.639Z,37.43
2019-02-02T17:37:58.888Z,37.63
2019-02-02T17:40:30.064Z,38.53
2019-02-02T17:43:01.196Z,33.50
2019-02-02T17:45:32.280Z,37.00
2019-02-02T17:48:03.492Z,40.67
2019-02-02T17:50:34.578Z,39.57
2019-02-02T17:53:06.270Z,38.03
2019-02-02T17:55:37.534Z,38.67
2019-02-02T17:58:08.714Z,40.27
2019-02-02T18:00:44.457Z,39.77
2019-02-02T18:03:15.636Z,39.83
2019-02-02T18:05:46.830Z,41.03
2019-02-02T18:08:17.902Z,41.07
2019-02-02T18:10:49.138Z,44.13
2019-02-02T18:13:21.617Z,44.60
2019-02-02T18:15:52.711Z,45.77
2019-02-02T18:18:23.871Z,45.10
2019-02-02T18:20:55.067Z,47.87
2019-02-02T18:23:26.250Z,45.70
2019-02-02T18:25:57.420Z,47.63
2019-02-02T18:28:28.513Z,46.77
2019-02-02T18:30:59.724Z,39.53
2019-02-02T18:33:30.781Z,42.77
2019-02-02T18:36:02.316Z,39.90
2019-02-02T18:38:34.017Z,40.83
2019-02-02T18:41:05.143Z,39.63
2019-02-02T18:43:36.262Z,39.23
2019-02-02T18:46:07.365Z,41.13
2019-02-02T18:48:38.545Z,40.77
2019-02-02T18:51:09.662Z,38.20
2019-02-02T18:53:40.811Z,40.90
2019-02-02T18:56:13.830Z,47.07
2019-02-02T18:58:44.994Z,44.93
2019-02-02T19:01:16.194Z,45.73
2019-02-02T19:03:47.302Z,42.83
2019-02-02T19:06:18.412Z,44.83
2019-02-02T19:08:49.610Z,45.40
2019-02-02T19:11:20.831Z,45.30
2019-02-02T19:13:52.045Z,50.13
2019-02-02T19:16:23.122Z,53.10
2019-02-02T19:18:54.257Z,46.30
2019-02-02T19:21:26.480Z,47.13
2019-02-02T19:23:57.514Z,45.77
2019-02-02T19:26:28.714Z,48.20
2019-02-02T19:28:59.901Z,49.83
2019-02-02T19:31:38.277Z,53.17
2019-02-02T19:34:09.542Z,50.53
2019-02-02T19:36:40.689Z,53.93
2019-02-02T19:39:11.802Z,56.90
2019-02-02T19:41:43.110Z,62.00
2019-02-02T19:44:14.241Z,59.67
2019-02-02T19:46:45.491Z,55.53
2019-02-02T19:49:16.761Z,55.37
2019-02-02T19:51:48.027Z,54.90
2019-02-02T19:54:19.114Z,60.40
2019-02-02T19:56:50.241Z,50.50
2019-02-02T19:59:24.034Z,50.83
2019-02-02T20:01:55.261Z,47.73
2019-02-02T20:04:26.509Z,48.33
2019-02-02T20:06:57.559Z,46.60
2019-02-02T20:09:28.844Z,48.10
2019-02-02T20:11:59.975Z,44.40
2019-02-02T20:14:31.523Z,45.90
2019-02-02T20:17:02.772Z,45.53
2019-02-02T20:19:34.032Z,46.50
2019-02-02T20:22:06.566Z,42.87
2019-02-02T20:24:37.693Z,50.10
2019-02-02T20:27:09.038Z,50.80
2019-02-02T20:29:41.875Z,59.93
2019-02-02T20:32:13.057Z,70.50
2019-02-02T20:34:44.238Z,63.13
2019-02-02T20:37:15.571Z,65.87
2019-02-02T20:39:46.798Z,66.27
2019-02-02T20:42:18.014Z,62.07
2019-02-02T20:44:49.135Z,70.83
2019-02-02T20:47:20.304Z,59.60
2019-02-02T20:49:51.412Z,64.07
2019-02-02T20:52:24.065Z,58.73
2019-02-02T20:54:55.320Z,57.03
2019-02-02T20:57:26.522Z,61.60
2019-02-02T20:59:57.643Z,58.60
2019-02-02T21:02:29.212Z,56.40
2019-02-02T21:05:00.670Z,54.83
2019-02-02T21:07:31.865Z,49.10
2019-02-02T21:10:03.504Z,52.37
2019-02-02T21:12:34.818Z,48.97
2019-02-02T21:15:07.942Z,45.80
2019-02-02T21:17:39.398Z,42.67
2019-02-02T21:20:13.622Z,42.40
2019-02-02T21:22:45.071Z,40.30
2019-02-02T21:25:16.847Z,42.20
2019-02-02T21:27:48.032Z,40.70
2019-02-02T21:30:21.562Z,38.47
2019-02-02T21:32:52.889Z,38.80
2019-02-02T21:35:24.543Z,42.63
2019-02-02T21:37:55.761Z,38.43
2019-02-02T21:40:29.078Z,41.73
2019-02-02T21:43:00.519Z,42.17
2019-02-02T21:45:32.641Z,40.90
2019-02-02T21:48:04.025Z,39.60
2019-02-02T21:50:35.234Z,41.63
2019-02-02T21:53:06.695Z,51.43
2019-02-02T21:55:37.920Z,56.83
2019-02-02T21:58:09.511Z,55.87
2019-02-02T22:00:43.303Z,71.50
2019-02-02T22:03:14.406Z,56.17
2019-02-02T22:05:45.637Z,60.73
2019-02-02T22:08:17.300Z,54.67
2019-02-02T22:10:48.543Z,50.40
2019-02-02T22:13:19.862Z,49.77
2019-02-02T22:15:51.185Z,44.63
2019-02-02T22:18:22.318Z,42.70
2019-02-02T22:20:53.475Z,49.57
2019-02-02T22:23:24.587Z,41.90
2019-02-02T22:25:56.146Z,40.43
2019-02-02T22:28:27.322Z,41.77
2019-02-02T22:30:58.548Z,40.23
2019-02-02T22:33:29.787Z,40.17
2019-02-02T22:36:00.926Z,42.00
2019-02-02T22:38:32.141Z,40.33
2019-02-02T22:41:03.280Z,40.70
2019-02-02T22:43:34.367Z,39.43
2019-02-02T22:46:05.988Z,43.30
2019-02-02T22:48:37.253Z,45.17
2019-02-02T22:51:08.418Z,48.37
2019-02-02T22:53:39.466Z,49.60
2019-02-02T22:56:11.023Z,55.90
2019-02-02T22:58:42.109Z,51.20
2019-02-02T23:01:24.876Z,46.57
2019-02-02T23:04:36.318Z,39.70
2019-02-02T23:07:54.825Z,39.53
2019-02-02T23:11:21.764Z,39.23
2019-02-02T23:14:28.789Z,40.17
2019-02-02T23:16:59.928Z,41.87
2019-02-02T23:19:31.045Z,40.93
2019-02-02T23:22:02.640Z,40.60
2019-02-02T23:24:34.332Z,43.00
2019-02-02T23:27:05.494Z,40.27
2019-02-02T23:29:36.603Z,40.30
2019-02-02T23:32:07.732Z,40.00
2019-02-02T23:34:38.943Z,41.17
2019-02-02T23:37:10.355Z,41.40
2019-02-02T23:39:41.512Z,41.63
2019-02-02T23:42:12.963Z,61.33
2019-02-02T23:44:44.137Z,47.00
2019-02-02T23:47:15.321Z,41.10
2019-02-02T23:49:46.404Z,43.07
2019-02-02T23:52:17.526Z,40.07
2019-02-02T23:54:48.606Z,39.67
2019-02-02T23:57:19.706Z,38.30
2019-02-02T23:59:50.759Z,39.07
